Time;durP1;ratioP1;P1;durP2;ratioP2;P2;SDS_P1;SDS_P2;PMS_P1;PMS_P2;Temp;Humidity;BMP_temperature;BMP_pressure;BME280_temperature;BME280_humidity;BME280_pressure;Samples;Min_cycle;Max_cycle;Signal;HPM_P1;HPM_P2
2022/11/04 00:01:42;;;;;;;2.05;1.80;;;10.90;99.90;;;;;;5112922;28;20663;-53
2022/11/04 00:04:09;;;;;;;3.20;1.90;;;10.90;99.90;;;;;;5113199;28;20737;-53
2022/11/04 00:06:35;;;;;;;2.20;2.00;;;10.90;99.90;;;;;;5113490;28;20689;-53
2022/11/04 00:09:02;;;;;;;2.58;1.50;;;10.90;99.90;;;;;;5113261;28;20175;-54
2022/11/04 00:14:13;;;;;;;1.92;1.40;;;10.90;99.90;;;;;;5113024;28;20195;-53
2022/11/04 00:19:23;;;;;;;2.13;1.40;;;10.80;99.90;;;;;;5112842;28;20207;-53
2022/11/04 00:30:08;;;;;;;1.38;1.27;;;10.80;99.90;;;;;;5113303;28;20524;-54
2022/11/04 00:35:19;;;;;;;2.13;1.75;;;10.80;99.90;;;;;;5112963;28;20168;-53
2022/11/04 00:37:44;;;;;;;2.75;1.40;;;10.80;99.90;;;;;;5112765;28;20251;-53
2022/11/04 00:40:13;;;;;;;3.03;1.50;;;10.90;99.90;;;;;;5112541;28;20633;-53
2022/11/04 00:42:39;;;;;;;3.22;1.50;;;10.90;99.90;;;;;;5112863;28;20587;-53
2022/11/04 00:45:05;;;;;;;4.65;1.88;;;10.90;99.90;;;;;;5112823;28;20174;-53
2022/11/04 00:47:31;;;;;;;1.65;1.55;;;10.90;99.90;;;;;;5112560;28;20172;-53
2022/11/04 00:49:57;;;;;;;3.20;1.30;;;11.00;99.90;;;;;;5094100;28;20172;-53
2022/11/04 00:52:23;;;;;;;3.45;1.60;;;11.00;99.90;;;;;;5094142;28;20188;-53
2022/11/04 00:54:48;;;;;;;4.35;1.55;;;11.00;99.90;;;;;;5112393;28;20169;-53
2022/11/04 00:57:14;;;;;;;1.90;1.40;;;11.00;99.90;;;;;;5112587;28;20229;-54
2022/11/04 00:59:40;;;;;;;3.17;1.70;;;11.00;99.90;;;;;;5112065;28;20201;-53
2022/11/04 01:02:08;;;;;;;5.95;1.67;;;11.00;99.90;;;;;;5112424;28;20735;-53
2022/11/04 01:04:34;;;;;;;4.50;1.50;;;11.00;99.90;;;;;;5112559;28;20181;-53
2022/11/04 01:07:00;;;;;;;5.55;1.70;;;11.00;99.90;;;;;;5112337;28;20214;-53
2022/11/04 01:09:26;;;;;;;2.13;1.48;;;11.00;99.90;;;;;;5112176;28;20168;-53
2022/11/04 01:11:51;;;;;;;5.60;1.55;;;11.10;99.90;;;;;;5112148;28;20169;-54
2022/11/04 01:14:18;;;;;;;2.65;1.83;;;11.10;99.90;;;;;;5112176;28;20172;-53
2022/11/04 01:16:43;;;;;;;3.10;1.73;;;11.00;99.90;;;;;;5112229;28;20596;-53
2022/11/04 01:19:10;;;;;;;2.70;1.50;;;11.00;99.90;;;;;;5112022;28;20242;-53
2022/11/04 01:21:35;;;;;;;2.00;1.50;;;11.00;99.90;;;;;;5112445;28;20167;-53
2022/11/04 01:24:01;;;;;;;2.28;1.60;;;10.90;99.90;;;;;;5112036;28;20169;-53
2022/11/04 01:26:28;;;;;;;1.25;1.13;;;10.90;99.90;;;;;;5112018;28;20168;-53
2022/11/04 01:28:54;;;;;;;3.88;1.40;;;10.80;99.90;;;;;;5111883;28;20165;-53
2022/11/04 01:31:23;;;;;;;5.70;2.20;;;10.80;99.90;;;;;;5111895;28;20165;-53
2022/11/04 01:33:51;;;;;;;2.53;1.25;;;10.80;99.90;;;;;;5111973;28;20165;-53
2022/11/04 01:36:18;;;;;;;3.08;1.55;;;10.70;99.90;;;;;;5111993;28;20299;-53
2022/11/04 01:38:44;;;;;;;5.93;1.33;;;10.70;99.90;;;;;;5111820;28;20260;-53
2022/11/04 01:41:20;;;;;;;2.17;1.48;;;10.70;99.90;;;;;;5111901;28;20187;-53
2022/11/04 01:43:53;;;;;;;2.58;1.35;;;10.60;99.90;;;;;;5111957;28;20193;-54
2022/11/04 01:46:36;;;;;;;1.83;1.40;;;10.60;99.90;;;;;;5111866;28;20622;-53
2022/11/04 01:49:29;;;;;;;5.28;1.77;;;10.50;99.90;;;;;;5112243;28;20175;-53
2022/11/04 01:52:03;;;;;;;2.72;1.58;;;10.50;99.90;;;;;;5111919;28;20166;-53
2022/11/04 01:54:29;;;;;;;4.90;1.77;;;10.50;99.90;;;;;;5093664;28;20196;-53
2022/11/04 01:56:56;;;;;;;5.70;1.77;;;10.40;99.90;;;;;;5111684;28;20165;-54
2022/11/04 01:59:31;;;;;;;8.80;1.80;;;10.40;99.90;;;;;;5111575;28;20208;-53
2022/11/04 02:01:57;;;;;;;3.35;1.30;;;10.40;99.90;;;;;;5111587;28;20243;-53
2022/11/04 02:04:25;;;;;;;6.07;1.60;;;10.30;99.90;;;;;;5111958;28;20607;-53
2022/11/04 02:06:57;;;;;;;5.75;2.10;;;10.30;99.90;;;;;;5111705;28;20180;-54
2022/11/04 02:09:24;;;;;;;5.00;2.13;;;10.30;99.90;;;;;;5111945;28;20196;-53
2022/11/04 02:14:35;;;;;;;11.10;3.28;;;10.30;99.90;;;;;;5115646;28;20224;-53
2022/11/04 02:17:20;;;;;;;7.72;2.83;;;10.30;99.90;;;;;;5115198;28;20161;-53
2022/11/04 02:20:03;;;;;;;6.55;2.42;;;10.20;99.90;;;;;;5115078;28;20558;-53
2022/11/04 02:22:44;;;;;;;3.83;2.30;;;10.20;99.90;;;;;;5114715;28;20169;-53
2022/11/04 02:25:45;;;;;;;8.25;2.80;;;10.20;99.90;;;;;;5115108;28;20213;-53
2022/11/04 02:28:43;;;;;;;6.85;2.40;;;10.20;99.90;;;;;;5114987;28;20530;-53
2022/11/04 02:31:30;;;;;;;7.70;2.67;;;10.10;99.90;;;;;;5114956;28;20654;-53
2022/11/04 02:34:10;;;;;;;9.48;3.58;;;10.10;99.90;;;;;;5114971;28;20251;-53
2022/11/04 02:37:11;;;;;;;7.93;3.03;;;10.10;99.90;;;;;;5115449;28;20168;-53
2022/11/04 02:39:46;;;;;;;5.90;2.58;;;10.10;99.90;;;;;;5088948;28;20216;-53
2022/11/04 02:42:15;;;;;;;9.52;3.15;;;10.10;99.90;;;;;;5114767;28;20171;-53
2022/11/04 02:45:06;;;;;;;9.27;3.38;;;10.10;99.90;;;;;;5114734;28;20167;-53
2022/11/04 02:47:35;;;;;;;8.48;2.72;;;10.00;99.90;;;;;;5073085;28;20176;-53
2022/11/04 02:50:19;;;;;;;9.48;3.17;;;10.00;99.90;;;;;;5114644;28;20248;-54
2022/11/04 02:53:03;;;;;;;6.53;2.53;;;10.00;99.90;;;;;;5114594;28;20167;-53
2022/11/04 02:55:38;;;;;;;9.90;2.67;;;9.90;99.90;;;;;;5114487;28;20624;-53
2022/11/04 02:58:09;;;;;;;10.43;2.05;;;9.90;99.90;;;;;;5114676;28;20693;-53
2022/11/04 03:00:38;;;;;;;5.15;1.70;;;9.90;99.90;;;;;;5114876;28;20527;-53
2022/11/04 03:03:13;;;;;;;6.80;2.13;;;9.90;99.90;;;;;;5114606;28;20216;-53
2022/11/04 03:05:41;;;;;;;5.60;1.77;;;9.80;99.90;;;;;;5114315;28;20168;-53
2022/11/04 03:08:19;;;;;;;7.13;1.63;;;9.80;99.90;;;;;;5114299;28;20252;-53
2022/11/04 03:10:53;;;;;;;10.90;2.50;;;9.80;99.90;;;;;;5114459;28;20176;-53
2022/11/04 03:13:35;;;;;;;15.40;3.05;;;9.70;99.90;;;;;;5114100;28;20249;-52
2022/11/04 03:16:05;;;;;;;15.48;5.60;;;9.80;99.90;;;;;;5114064;28;20196;-53
2022/11/04 03:18:56;;;;;;;14.48;4.57;;;9.80;99.90;;;;;;5113932;28;20287;-53
2022/11/04 03:21:23;;;;;;;6.85;3.60;;;9.80;99.90;;;;;;5113832;28;20239;-52
2022/11/04 03:23:49;;;;;;;8.30;2.72;;;9.80;99.90;;;;;;5095139;28;20516;-53
2022/11/04 03:26:27;;;;;;;4.65;2.20;;;9.80;99.90;;;;;;5113976;28;20243;-52
2022/11/04 03:29:26;;;;;;;14.52;3.13;;;9.80;99.90;;;;;;5113802;28;20179;-53
2022/11/04 03:32:01;;;;;;;15.00;3.45;;;9.80;99.90;;;;;;5113804;28;20157;-53
2022/11/04 03:34:27;;;;;;;10.85;3.83;;;9.80;99.90;;;;;;5113668;28;20184;-53
2022/11/04 03:36:53;;;;;;;17.60;5.05;;;9.80;99.90;;;;;;5113750;28;20199;-53
2022/11/04 03:39:19;;;;;;;16.67;4.63;;;9.80;99.90;;;;;;5113530;28;20260;-53
2022/11/04 03:41:51;;;;;;;18.40;5.68;;;9.80;99.90;;;;;;5113740;28;20161;-53
2022/11/04 03:44:17;;;;;;;16.55;5.70;;;9.80;99.90;;;;;;5113527;28;20644;-53
2022/11/04 03:46:42;;;;;;;14.70;4.43;;;9.80;99.90;;;;;;5113513;28;20156;-53
2022/11/04 03:49:10;;;;;;;20.65;5.40;;;9.80;99.90;;;;;;5113424;28;20239;-53
2022/11/04 03:51:36;;;;;;;17.60;4.82;;;9.70;99.90;;;;;;5113701;28;20706;-53
2022/11/04 03:54:01;;;;;;;12.75;3.42;;;9.70;99.90;;;;;;5113813;28;20165;-54
2022/11/04 03:56:50;;;;;;;17.98;4.45;;;9.70;99.90;;;;;;5113598;28;20164;-53
2022/11/04 03:59:53;;;;;;;8.40;2.33;;;9.70;99.90;;;;;;5113186;28;20201;-53
2022/11/04 04:02:37;;;;;;;8.80;2.22;;;9.70;99.90;;;;;;5113063;28;20236;-53
2022/11/04 04:05:28;;;;;;;10.52;2.50;;;9.70;99.90;;;;;;5113473;28;20225;-53
2022/11/04 04:07:54;;;;;;;8.32;2.28;;;9.70;99.90;;;;;;5113114;28;20164;-53
2022/11/04 04:10:40;;;;;;;6.72;2.20;;;9.70;99.90;;;;;;5113035;28;20171;-54
2022/11/04 04:13:21;;;;;;;9.32;3.15;;;9.70;99.90;;;;;;5113005;28;20183;-53
2022/11/04 04:16:12;;;;;;;13.30;4.18;;;9.60;99.90;;;;;;5094695;28;20172;-53
2022/11/04 04:18:58;;;;;;;13.38;4.32;;;9.60;99.90;;;;;;5112666;28;20236;-53
2022/11/04 04:21:30;;;;;;;15.73;3.63;;;9.60;99.90;;;;;;5112820;28;20160;-54
2022/11/04 04:29:29;;;;;;;5.55;2.22;;;9.50;99.90;;;;;;5112775;28;20164;-53
2022/11/04 04:31:57;;;;;;;11.10;2.15;;;9.50;99.90;;;;;;5112712;28;20243;-53
2022/11/04 04:34:30;;;;;;;6.70;1.70;;;9.50;99.90;;;;;;5112131;28;20525;-54
2022/11/04 04:37:04;;;;;;;3.83;1.58;;;9.50;99.90;;;;;;5112638;28;20669;-53
2022/11/04 04:45:26;;;;;;;4.80;1.80;;;9.50;99.90;;;;;;5112504;28;20178;-53
2022/11/04 04:47:52;;;;;;;4.93;1.50;;;9.50;99.90;;;;;;5112470;28;20619;-53
2022/11/04 04:50:20;;;;;;;5.43;1.95;;;9.60;99.90;;;;;;5112347;28;20211;-53
2022/11/04 04:52:49;;;;;;;5.43;1.77;;;9.60;99.90;;;;;;5112421;28;20172;-53
2022/11/04 04:55:16;;;;;;;7.18;2.05;;;9.50;99.90;;;;;;5112659;28;20241;-53
2022/11/04 04:57:41;;;;;;;3.97;1.55;;;9.60;99.90;;;;;;5112170;28;20222;-53
2022/11/04 05:00:11;;;;;;;8.98;1.85;;;9.60;99.90;;;;;;5112498;28;20172;-53
2022/11/04 05:02:37;;;;;;;7.70;1.80;;;9.50;99.90;;;;;;5112155;28;20568;-53
2022/11/04 05:05:02;;;;;;;7.90;1.80;;;9.50;99.90;;;;;;5112603;28;20165;-53
2022/11/04 05:07:28;;;;;;;5.80;1.92;;;9.50;99.90;;;;;;5112176;28;20520;-53
2022/11/04 05:09:54;;;;;;;5.30;1.48;;;9.40;99.90;;;;;;5112300;28;20157;-53
2022/11/04 05:12:20;;;;;;;8.05;1.75;;;9.40;99.90;;;;;;5112139;28;20176;-53
2022/11/04 05:14:45;;;;;;;6.93;1.70;;;9.30;99.90;;;;;;5112404;28;20165;-53
2022/11/04 05:17:11;;;;;;;4.93;1.63;;;9.30;99.90;;;;;;5112321;28;20261;-53
2022/11/04 05:19:37;;;;;;;3.50;1.95;;;9.30;99.90;;;;;;5112286;28;20272;-53
2022/11/04 05:22:03;;;;;;;7.35;1.65;;;9.30;99.90;;;;;;5112414;28;20161;-53
2022/11/04 05:24:29;;;;;;;8.93;2.20;;;9.30;99.90;;;;;;5093382;28;20177;-53
2022/11/04 05:26:54;;;;;;;6.78;2.63;;;9.30;99.90;;;;;;5112071;28;20533;-53
2022/11/04 05:29:20;;;;;;;8.30;1.60;;;9.30;99.90;;;;;;5111953;28;20160;-53
2022/11/04 05:31:45;;;;;;;4.60;1.90;;;9.20;99.90;;;;;;5112107;28;20173;-53
2022/11/04 05:34:11;;;;;;;6.00;1.98;;;9.20;99.90;;;;;;5111988;28;20173;-54
2022/11/04 05:36:37;;;;;;;8.32;2.55;;;9.20;99.90;;;;;;5111932;28;20624;-53
2022/11/04 05:39:04;;;;;;;14.30;4.53;;;9.20;99.90;;;;;;5112209;28;20211;-57
2022/11/04 05:41:30;;;;;;;20.70;4.88;;;9.20;99.90;;;;;;5112113;28;20165;-53
2022/11/04 05:43:58;;;;;;;18.52;6.75;;;9.20;99.90;;;;;;5111945;28;20578;-53
2022/11/04 05:46:24;;;;;;;21.50;5.43;;;9.20;99.90;;;;;;5113977;28;20175;-53
2022/11/04 05:48:50;;;;;;;15.93;5.30;;;9.20;99.90;;;;;;5115761;28;20179;-54
2022/11/04 05:51:19;;;;;;;15.25;4.75;;;9.20;99.90;;;;;;5115799;28;20165;-54
2022/11/04 05:53:45;;;;;;;9.68;3.97;;;9.20;99.90;;;;;;5115746;28;20164;-53
2022/11/04 05:56:16;;;;;;;14.82;4.18;;;9.20;99.90;;;;;;5115676;28;20168;-54
2022/11/04 05:58:42;;;;;;;9.20;3.78;;;9.20;99.90;;;;;;5115767;28;20207;-53
2022/11/04 06:01:27;;;;;;;7.30;3.33;;;9.20;99.90;;;;;;5115513;28;20243;-52
2022/11/04 06:03:54;;;;;;;9.32;3.03;;;9.10;99.90;;;;;;5114551;28;20216;-53
2022/11/04 06:06:21;;;;;;;7.43;2.17;;;9.10;99.90;;;;;;5115174;28;20160;-52
2022/11/04 06:08:46;;;;;;;7.80;2.22;;;9.10;99.90;;;;;;5114875;28;20164;-53
2022/11/04 06:11:12;;;;;;;9.38;2.10;;;9.10;99.90;;;;;;5115337;28;20171;-53
2022/11/04 06:13:38;;;;;;;5.18;1.70;;;9.00;99.90;;;;;;5115037;28;20195;-53
2022/11/04 06:16:03;;;;;;;10.00;2.40;;;9.00;99.90;;;;;;5115530;28;20524;-53
2022/11/04 06:18:29;;;;;;;28.48;3.72;;;9.00;99.90;;;;;;5114453;28;20200;-53
2022/11/04 06:21:31;;;;;;;7.40;1.90;;;9.00;99.90;;;;;;5114941;28;20244;-53
2022/11/04 06:23:58;;;;;;;20.33;8.73;;;8.90;99.90;;;;;;5032442;28;20178;-53
2022/11/04 06:26:25;;;;;;;23.25;12.27;;;8.90;99.90;;;;;;5099537;28;20180;-53
2022/11/04 06:28:51;;;;;;;29.50;13.05;;;8.90;99.90;;;;;;5114714;28;20165;-53
2022/11/04 06:31:17;;;;;;;30.05;14.18;;;8.80;99.90;;;;;;5114791;28;20169;-53
2022/11/04 06:33:43;;;;;;;21.05;10.77;;;8.80;99.90;;;;;;5114877;28;20191;-53
2022/11/04 06:36:13;;;;;;;15.25;4.15;;;8.80;99.90;;;;;;5114783;28;20636;-53
2022/11/04 06:38:39;;;;;;;9.48;3.92;;;8.80;99.90;;;;;;5114717;28;20568;-53
2022/11/04 06:41:06;;;;;;;16.63;5.20;;;8.80;99.90;;;;;;5108883;28;20176;-53
2022/11/04 06:43:32;;;;;;;17.73;5.88;;;9.20;99.90;;;;;;5093169;28;20663;-53
2022/11/04 06:45:59;;;;;;;7.18;2.60;;;8.70;99.90;;;;;;5093611;28;20177;-53
2022/11/04 06:48:26;;;;;;;3.72;2.35;;;8.70;99.90;;;;;;5094444;28;20169;-53
2022/11/04 06:50:52;;;;;;;6.70;2.45;;;8.70;99.90;;;;;;5098285;28;20173;-53
2022/11/04 06:53:17;;;;;;;6.65;2.60;;;8.70;99.90;;;;;;5111703;28;20206;-53
2022/11/04 06:55:43;;;;;;;9.70;4.60;;;8.70;99.90;;;;;;5102607;28;20177;-53
2022/11/04 06:58:09;;;;;;;16.83;2.95;;;8.80;99.90;;;;;;5091619;28;20197;-52
2022/11/04 07:00:34;;;;;;;6.82;2.15;;;8.70;99.90;;;;;;5091506;28;20387;-46
2022/11/04 07:03:00;;;;;;;9.10;2.10;;;8.80;99.90;;;;;;5103203;28;21909;-49
2022/11/04 07:05:25;;;;;;;10.52;2.83;;;8.80;99.90;;;;;;5093200;28;20583;-49
2022/11/04 07:07:51;;;;;;;9.82;4.57;;;8.80;99.90;;;;;;5092964;28;20169;-50
2022/11/04 07:10:16;;;;;;;11.05;5.15;;;8.80;99.90;;;;;;5095914;28;20177;-49
2022/11/04 07:12:43;;;;;;;11.45;5.45;;;8.80;99.90;;;;;;5093381;28;20173;-51
2022/11/04 07:15:09;;;;;;;8.55;3.40;;;8.80;99.90;;;;;;5096912;28;20636;-50
2022/11/04 07:17:34;;;;;;;6.38;2.20;;;8.90;99.90;;;;;;5105275;28;20777;-50
2022/11/04 07:20:00;;;;;;;6.13;2.70;;;8.90;99.90;;;;;;5092981;28;20208;-46
2022/11/04 07:22:26;;;;;;;9.45;3.00;;;8.80;99.90;;;;;;5091411;28;20225;-55
2022/11/04 07:24:51;;;;;;;14.82;4.82;;;8.90;99.90;;;;;;5095501;28;20538;-50
2022/11/04 07:27:17;;;;;;;10.52;4.85;;;8.90;99.90;;;;;;5094553;28;20181;-45
2022/11/04 07:29:42;;;;;;;16.10;3.15;;;8.90;99.90;;;;;;5108590;28;20287;-45
2022/11/04 07:32:08;;;;;;;5.88;3.35;;;9.00;99.90;;;;;;5096394;28;20192;-50
2022/11/04 07:34:33;;;;;;;10.60;3.92;;;9.10;99.90;;;;;;5091540;28;20177;-48
2022/11/04 07:36:59;;;;;;;7.78;4.07;;;9.10;99.90;;;;;;5106617;28;20574;-48
2022/11/04 07:39:24;;;;;;;6.50;3.17;;;9.20;99.90;;;;;;5102911;28;20205;-48
2022/11/04 07:41:50;;;;;;;13.55;6.50;;;9.20;99.90;;;;;;5103177;28;20252;-48
2022/11/04 07:44:15;;;;;;;4.05;2.22;;;9.30;99.90;;;;;;5111623;28;20204;-48
2022/11/04 07:46:41;;;;;;;6.40;2.35;;;9.20;99.90;;;;;;5111617;28;20646;-48
2022/11/04 07:49:07;;;;;;;7.65;2.70;;;9.30;99.90;;;;;;5111795;28;20538;-51
2022/11/04 07:51:33;;;;;;;6.05;3.22;;;9.30;99.90;;;;;;5112124;28;20160;-49
2022/11/04 07:53:59;;;;;;;6.18;3.50;;;9.30;99.90;;;;;;5093620;28;20208;-50
2022/11/04 07:56:25;;;;;;;6.13;3.35;;;9.30;99.90;;;;;;5111600;28;20157;-51
2022/11/04 07:58:51;;;;;;;10.13;3.15;;;9.30;99.90;;;;;;5111974;28;20196;-51
2022/11/04 08:01:19;;;;;;;5.40;2.80;;;9.40;99.90;;;;;;5106668;28;20229;-49
2022/11/04 08:03:45;;;;;;;8.88;2.85;;;9.40;99.90;;;;;;5093059;28;20223;-49
2022/11/04 08:06:13;;;;;;;8.80;3.53;;;9.40;99.90;;;;;;5111326;28;20169;-49
2022/11/04 08:08:38;;;;;;;9.15;3.50;;;9.40;99.90;;;;;;5102136;28;20645;-50
2022/11/04 08:11:07;;;;;;;8.70;3.55;;;9.40;99.90;;;;;;5100677;28;20233;-50
2022/11/04 08:13:35;;;;;;;6.35;3.03;;;9.40;99.90;;;;;;5105139;28;20180;-49
2022/11/04 08:16:05;;;;;;;7.47;2.92;;;9.40;99.90;;;;;;5109257;28;20173;-51
2022/11/04 08:18:32;;;;;;;6.07;2.90;;;9.40;99.90;;;;;;5109725;28;20250;-49
2022/11/04 08:20:59;;;;;;;7.38;2.97;;;9.40;99.90;;;;;;5091785;28;20311;-51
2022/11/04 08:23:24;;;;;;;12.60;5.32;;;9.40;99.90;;;;;;5090674;28;20185;-48
2022/11/04 08:25:50;;;;;;;9.27;3.28;;;9.40;99.90;;;;;;5102842;28;20184;-48
2022/11/04 08:28:18;;;;;;;10.00;3.40;;;9.40;99.90;;;;;;5109731;28;20169;-50
2022/11/04 08:31:04;;;;;;;5.72;3.30;;;9.40;99.90;;;;;;5099217;28;20176;-47
2022/11/04 08:33:32;;;;;;;12.20;4.45;;;9.50;99.90;;;;;;5111009;28;20281;-48
2022/11/04 08:36:05;;;;;;;13.38;4.15;;;9.50;99.90;;;;;;5093395;28;20173;-50
2022/11/04 08:38:33;;;;;;;13.05;3.95;;;9.60;99.90;;;;;;5090151;28;20937;-50
2022/11/04 08:41:00;;;;;;;8.82;3.78;;;9.70;99.90;;;;;;5090953;28;20187;-50
2022/11/04 08:43:26;;;;;;;12.10;3.63;;;9.80;99.90;;;;;;5090661;28;20861;-48
2022/11/04 08:45:52;;;;;;;8.13;3.72;;;9.90;99.90;;;;;;5090616;28;20244;-49
2022/11/04 08:48:18;;;;;;;12.05;4.97;;;10.00;99.90;;;;;;5091136;28;20306;-47
2022/11/04 08:50:48;;;;;;;13.32;3.72;;;10.10;99.90;;;;;;5090660;28;20661;-49
2022/11/04 08:53:14;;;;;;;10.00;3.88;;;10.10;99.90;;;;;;5090595;28;20228;-49
2022/11/04 08:55:40;;;;;;;17.92;11.50;;;10.10;99.90;;;;;;5090598;28;20174;-49
2022/11/04 08:58:05;;;;;;;12.10;8.65;;;10.30;99.90;;;;;;5090784;28;20569;-51
2022/11/04 09:00:31;;;;;;;9.07;4.28;;;10.30;99.90;;;;;;5090744;28;20191;-50
2022/11/04 09:02:58;;;;;;;10.07;3.83;;;10.50;99.90;;;;;;5090083;28;20320;-49
2022/11/04 09:05:24;;;;;;;13.00;4.43;;;10.70;99.90;;;;;;5090592;28;20173;-50
2022/11/04 09:07:49;;;;;;;10.20;4.28;;;10.90;99.90;;;;;;5090531;28;20694;-49
2022/11/04 09:10:16;;;;;;;10.38;3.72;;;10.90;99.90;;;;;;5090080;28;20173;-50
2022/11/04 09:12:42;;;;;;;7.70;3.65;;;11.00;99.90;;;;;;5090294;28;20210;-50
2022/11/04 09:15:08;;;;;;;12.85;6.25;;;11.00;99.90;;;;;;5090188;28;20185;-49
2022/11/04 09:17:33;;;;;;;24.88;14.85;;;11.20;99.90;;;;;;5090803;28;20173;-51
2022/11/04 09:19:59;;;;;;;9.63;3.78;;;11.20;99.90;;;;;;5073389;28;20227;-50
2022/11/04 09:22:25;;;;;;;11.90;4.72;;;11.20;99.90;;;;;;5094422;28;20181;-51
2022/11/04 09:24:50;;;;;;;8.98;2.85;;;11.30;99.90;;;;;;5094605;28;20520;-51
2022/11/04 09:27:16;;;;;;;12.48;3.25;;;11.40;99.90;;;;;;5094467;28;20193;-52
2022/11/04 09:29:41;;;;;;;5.82;2.17;;;11.40;99.90;;;;;;5094148;28;20177;-47
2022/11/04 09:32:07;;;;;;;6.68;2.50;;;11.40;99.90;;;;;;5093940;28;20252;-48
2022/11/04 09:34:33;;;;;;;6.53;2.33;;;11.50;99.90;;;;;;5093772;28;20196;-48
2022/11/04 09:36:59;;;;;;;3.47;1.88;;;11.90;99.90;;;;;;5094142;28;20208;-48
2022/11/04 09:39:25;;;;;;;7.43;2.80;;;12.20;99.90;;;;;;5094039;28;20638;-52
2022/11/04 09:42:20;;;;;;;9.57;2.70;;;12.30;99.90;;;;;;5094141;28;20184;-52
2022/11/04 09:45:04;;;;;;;5.28;2.63;;;12.20;99.90;;;;;;5094099;28;20169;-47
2022/11/04 09:47:32;;;;;;;6.43;2.83;;;12.10;99.90;;;;;;5094277;28;20173;-53
2022/11/04 09:49:59;;;;;;;6.32;2.45;;;12.20;99.90;;;;;;5093968;28;20165;-50
2022/11/04 09:52:38;;;;;;;8.05;2.67;;;12.40;99.90;;;;;;5075741;28;20165;-51
2022/11/04 09:55:15;;;;;;;6.40;2.40;;;12.20;99.90;;;;;;5094241;28;20169;-52
2022/11/04 09:57:41;;;;;;;8.88;2.42;;;12.00;99.90;;;;;;5094012;28;20161;-53
2022/11/04 10:00:14;;;;;;;7.18;2.42;;;12.00;99.90;;;;;;5093714;28;20634;-51
2022/11/04 10:02:52;;;;;;;9.88;2.50;;;12.00;99.90;;;;;;5093630;28;20251;-56
2022/11/04 10:05:30;;;;;;;7.60;2.47;;;12.00;99.90;;;;;;5093536;28;20191;-55
2022/11/04 10:08:23;;;;;;;11.15;3.30;;;12.10;99.90;;;;;;5093592;28;20777;-55
2022/11/04 10:11:05;;;;;;;5.22;2.88;;;12.00;99.90;;;;;;5093602;28;20169;-52
2022/11/04 10:13:55;;;;;;;9.55;2.58;;;12.00;99.90;;;;;;5093430;28;20256;-52
2022/11/04 10:16:29;;;;;;;7.30;2.63;;;12.00;99.90;;;;;;5092915;28;20264;-52
2022/11/04 10:19:21;;;;;;;6.60;2.75;;;12.00;99.90;;;;;;5092987;28;20222;-51
2022/11/04 10:22:11;;;;;;;4.55;2.70;;;11.90;99.90;;;;;;5093028;28;20170;-51
2022/11/04 10:25:19;;;;;;;9.68;2.90;;;11.90;99.90;;;;;;5093010;28;20238;-53
2022/11/04 10:27:46;;;;;;;6.35;2.35;;;11.90;99.90;;;;;;5093248;28;20169;-51
2022/11/04 10:30:16;;;;;;;6.50;3.00;;;12.00;99.90;;;;;;5093050;28;20187;-51
2022/11/04 10:33:12;;;;;;;6.97;2.95;;;12.00;99.90;;;;;;5091787;28;20629;-52
2022/11/04 10:35:56;;;;;;;8.90;2.67;;;12.00;99.90;;;;;;5093252;28;20173;-52
2022/11/04 10:38:28;;;;;;;5.60;2.75;;;12.10;99.90;;;;;;5092908;28;20213;-52
2022/11/04 10:40:54;;;;;;;6.60;2.60;;;12.10;99.90;;;;;;5092985;28;20174;-52
2022/11/04 10:43:40;;;;;;;4.60;2.63;;;12.10;99.90;;;;;;5093164;28;20173;-51
2022/11/04 10:46:29;;;;;;;7.95;2.70;;;12.10;99.90;;;;;;5074365;28;20177;-51
2022/11/04 10:49:18;;;;;;;40.92;22.98;;;12.20;99.90;;;;;;5092619;28;20188;-52
2022/11/04 10:51:44;;;;;;;6.53;3.25;;;12.20;99.90;;;;;;5090632;28;20699;-52
2022/11/04 10:54:10;;;;;;;4.60;1.90;;;12.20;99.90;;;;;;5101387;28;20234;-52
2022/11/04 10:56:48;;;;;;;13.82;9.13;;;12.20;99.90;;;;;;5102940;28;20172;-51
2022/11/04 10:59:28;;;;;;;18.48;13.73;;;12.10;99.90;;;;;;5076975;28;20228;-51
2022/11/04 11:01:59;;;;;;;6.68;2.03;;;12.10;99.90;;;;;;5110993;28;20208;-51
2022/11/04 11:04:33;;;;;;;3.42;2.00;;;12.20;99.90;;;;;;5104813;28;20180;-51
2022/11/04 11:07:02;;;;;;;6.65;2.42;;;12.20;99.90;;;;;;5099705;28;20160;-52
2022/11/04 11:10:00;;;;;;;7.10;2.25;;;12.20;99.90;;;;;;5110124;28;20541;-52
2022/11/04 11:12:35;;;;;;;4.75;1.92;;;12.20;99.90;;;;;;5108778;28;20220;-51
2022/11/04 11:15:25;;;;;;;6.75;2.08;;;12.30;99.90;;;;;;5100559;28;20534;-51
2022/11/04 11:18:09;;;;;;;7.45;2.17;;;12.40;99.90;;;;;;5091295;28;20165;-51
2022/11/04 11:20:36;;;;;;;8.40;2.30;;;12.30;99.90;;;;;;5091953;28;20177;-51
2022/11/04 11:23:08;;;;;;;6.15;2.65;;;12.30;99.90;;;;;;5105576;28;20173;-52
2022/11/04 11:25:52;;;;;;;2.70;2.00;;;12.30;99.90;;;;;;5103167;28;20173;-53
2022/11/04 11:28:25;;;;;;;7.78;2.00;;;12.30;99.90;;;;;;5098496;28;20169;-51
2022/11/04 11:30:58;;;;;;;7.18;2.40;;;12.20;99.90;;;;;;5104389;28;20172;-51
2022/11/04 11:33:30;;;;;;;4.70;1.83;;;12.20;99.90;;;;;;5088752;28;20186;-51
2022/11/04 11:36:29;;;;;;;4.60;3.20;;;12.20;99.90;;;;;;5109924;28;20183;-52
2022/11/04 11:39:02;;;;;;;8.35;2.22;;;12.30;99.90;;;;;;5045774;28;20252;-51
2022/11/04 11:41:31;;;;;;;5.65;2.60;;;12.30;99.90;;;;;;5074060;28;20184;-51
2022/11/04 11:44:16;;;;;;;5.25;1.95;;;12.40;99.90;;;;;;5090813;28;20652;-51
2022/11/04 11:46:54;;;;;;;3.30;2.20;;;12.30;99.90;;;;;;5091055;28;20297;-51
2022/11/04 11:49:29;;;;;;;3.28;1.90;;;12.30;99.90;;;;;;5092134;28;20664;-52
2022/11/04 11:52:14;;;;;;;8.38;1.73;;;12.40;99.90;;;;;;5102772;28;20963;-51
2022/11/04 11:54:42;;;;;;;4.75;1.40;;;12.40;99.90;;;;;;5109161;28;20176;-52
2022/11/04 11:57:24;;;;;;;4.53;1.63;;;12.50;99.90;;;;;;5093609;28;20181;-52
2022/11/04 12:00:01;;;;;;;5.30;1.40;;;12.50;99.90;;;;;;5091624;28;20576;-52
2022/11/04 12:02:50;;;;;;;2.78;1.50;;;12.60;99.90;;;;;;5104584;28;20216;-53
2022/11/04 12:05:18;;;;;;;2.50;0.90;;;12.60;99.90;;;;;;5091308;28;20181;-52
2022/11/04 12:07:57;;;;;;;1.48;0.90;;;12.70;99.90;;;;;;5090768;28;20280;-52
2022/11/04 12:10:41;;;;;;;1.17;0.98;;;12.70;99.90;;;;;;5108438;28;20259;-52
2022/11/04 12:13:14;;;;;;;5.88;1.27;;;13.90;99.90;;;;;;5100306;28;20659;-53
2022/11/04 12:15:53;;;;;;;6.53;1.95;;;12.60;99.90;;;;;;5098993;28;20173;-54
2022/11/04 12:18:46;;;;;;;8.38;2.10;;;12.70;99.90;;;;;;5099463;28;20570;-53
2022/11/04 12:21:20;;;;;;;5.53;4.40;;;12.80;99.90;;;;;;5095418;28;20182;-52
2022/11/04 12:24:05;;;;;;;7.35;5.18;;;12.80;99.90;;;;;;5078459;28;20181;-53
2022/11/04 12:27:12;;;;;;;7.05;3.53;;;12.90;99.90;;;;;;5091302;28;20184;-54
2022/11/04 12:30:07;;;;;;;11.40;3.50;;;13.00;99.90;;;;;;5095353;28;20173;-54
2022/11/04 12:32:51;;;;;;;9.07;4.47;;;13.00;99.90;;;;;;5106308;28;20251;-54
2022/11/04 12:35:41;;;;;;;5.05;2.75;;;13.00;99.90;;;;;;5109408;28;20259;-54
2022/11/04 12:38:09;;;;;;;5.53;1.90;;;13.10;99.90;;;;;;5096994;28;20188;-53
2022/11/04 12:41:01;;;;;;;5.10;2.70;;;13.20;99.90;;;;;;5090582;28;20185;-53
2022/11/04 12:43:35;;;;;;;9.93;3.03;;;13.20;99.90;;;;;;5102124;28;20177;-54
2022/11/04 12:46:14;;;;;;;7.63;2.80;;;13.20;99.90;;;;;;5091254;28;20176;-54
2022/11/04 12:48:51;;;;;;;5.82;3.00;;;13.20;99.90;;;;;;5090590;28;20176;-54
2022/11/04 12:51:56;;;;;;;6.90;4.13;;;13.30;99.90;;;;;;5090615;28;20576;-54
2022/11/04 12:54:33;;;;;;;10.05;2.22;;;13.20;99.90;;;;;;5089260;28;20697;-54
2022/11/04 12:57:22;;;;;;;8.82;2.58;;;13.10;99.90;;;;;;5089495;28;20169;-54
2022/11/04 13:00:13;;;;;;;8.98;2.78;;;13.10;99.90;;;;;;5090601;28;20244;-54
2022/11/04 13:02:50;;;;;;;6.95;3.10;;;13.00;99.90;;;;;;5090283;28;20220;-54
2022/11/04 13:05:25;;;;;;;7.50;4.07;;;12.90;99.90;;;;;;5089663;28;20644;-54
2022/11/04 13:08:15;;;;;;;8.13;2.53;;;13.00;99.90;;;;;;5090364;28;20252;-54
2022/11/04 13:11:21;;;;;;;3.97;2.03;;;12.90;99.90;;;;;;5089012;28;20170;-54
2022/11/04 13:13:57;;;;;;;9.38;3.47;;;12.80;99.90;;;;;;5090245;28;20211;-54
2022/11/04 13:16:23;;;;;;;7.68;2.17;;;12.90;99.90;;;;;;5090159;28;20268;-54
2022/11/04 13:18:49;;;;;;;3.53;1.77;;;12.80;99.90;;;;;;5089220;28;20276;-54
2022/11/04 13:21:20;;;;;;;6.35;2.10;;;12.80;99.90;;;;;;5090145;28;20534;-54
2022/11/04 13:23:51;;;;;;;6.43;2.75;;;12.80;99.90;;;;;;5090186;28;20169;-54
2022/11/04 13:26:17;;;;;;;4.15;2.50;;;12.70;99.90;;;;;;5090059;28;20169;-54
2022/11/04 13:28:45;;;;;;;4.50;2.00;;;12.60;99.90;;;;;;5090476;28;20495;-54
2022/11/04 13:31:29;;;;;;;8.73;3.63;;;12.60;99.90;;;;;;5072256;28;20196;-54
2022/11/04 13:34:13;;;;;;;8.30;3.22;;;12.60;99.90;;;;;;5090223;28;20161;-55
2022/11/04 13:36:55;;;;;;;9.80;3.60;;;12.50;99.90;;;;;;5090118;28;20184;-55
2022/11/04 13:39:28;;;;;;;7.90;3.03;;;12.60;99.90;;;;;;5089885;28;20221;-55
2022/11/04 13:42:05;;;;;;;7.63;3.40;;;12.60;99.90;;;;;;5090464;28;20169;-58
2022/11/04 13:44:38;;;;;;;6.63;2.40;;;12.60;99.90;;;;;;5090396;28;20180;-54
2022/11/04 13:47:12;;;;;;;6.65;2.33;;;12.60;99.90;;;;;;5090376;28;20252;-54